RA73750 HLLB-OSDI
Flight info
| Callsign | RA73750 |
|---|---|
| Flight time | 1h 57m |
| Altitude | 45000 |
| Route | LAB DCT LAKBA DCT RASDA DCT AGUZO L78 DESPO DCT NIKAS R785 BASEM |
| Aircraft | C750/M-SBDE3FGHRWXY/H |
Departure
| Time | 2026-05-06 10:27 |
|---|---|
| Airport | Benina International Airport (HLLB) |
Arrival
| Time | 2026-05-06 12:24 |
|---|---|
| Airport | Damascus International Airport (OSDI) |
| Time | Latitude | Longitude | Altitude | Speed | Heading |
|---|---|---|---|---|---|
| 2026-05-06 10:07 | 32.08821 | 20.26822 | 411 ft | 0 kts | 356° |
| 2026-05-06 10:18 | 32.08810 | 20.26823 | 413 ft | 3 kts | 356° |
| 2026-05-06 10:18 | 32.08792 | 20.26824 | 409 ft | 3 kts | 356° |
| 2026-05-06 10:18 | 32.08773 | 20.26826 | 406 ft | 3 kts | 356° |
| 2026-05-06 10:19 | 32.08755 | 20.26822 | 403 ft | 3 kts | 41° |
| 2026-05-06 10:19 | 32.08745 | 20.26803 | 409 ft | 3 kts | 93° |
| 2026-05-06 10:19 | 32.08745 | 20.26801 | 403 ft | 0 kts | 98° |
| 2026-05-06 10:21 | 32.08744 | 20.26810 | 404 ft | 4 kts | 98° |
| 2026-05-06 10:21 | 32.08744 | 20.26863 | 411 ft | 8 kts | 85° |
| 2026-05-06 10:22 | 32.08750 | 20.26940 | 413 ft | 11 kts | 84° |
| 2026-05-06 10:22 | 32.08778 | 20.27005 | 411 ft | 9 kts | 24° |
| 2026-05-06 10:22 | 32.08852 | 20.26999 | 409 ft | 13 kts | 342° |
| 2026-05-06 10:22 | 32.08939 | 20.26943 | 409 ft | 16 kts | 329° |
| 2026-05-06 10:23 | 32.09042 | 20.26871 | 411 ft | 18 kts | 330° |
| 2026-05-06 10:23 | 32.09162 | 20.26791 | 411 ft | 21 kts | 330° |
| 2026-05-06 10:23 | 32.09299 | 20.26701 | 411 ft | 24 kts | 330° |
| 2026-05-06 10:23 | 32.09448 | 20.26601 | 411 ft | 26 kts | 330° |
| 2026-05-06 10:24 | 32.09615 | 20.26489 | 411 ft | 29 kts | 330° |
| 2026-05-06 10:24 | 32.09794 | 20.26367 | 411 ft | 31 kts | 329° |
| 2026-05-06 10:24 | 32.09986 | 20.26238 | 411 ft | 31 kts | 330° |
| 2026-05-06 10:24 | 32.10173 | 20.26113 | 411 ft | 30 kts | 330° |
| 2026-05-06 10:25 | 32.10336 | 20.26039 | 411 ft | 25 kts | 12° |
| 2026-05-06 10:25 | 32.10437 | 20.26178 | 413 ft | 23 kts | 82° |
| 2026-05-06 10:25 | 32.10383 | 20.26298 | 409 ft | 12 kts | 144° |
| 2026-05-06 10:25 | 32.10366 | 20.26311 | 411 ft | 2 kts | 149° |
| 2026-05-06 10:26 | 32.10358 | 20.26316 | 410 ft | 1 kts | 149° |
| 2026-05-06 10:26 | 32.10255 | 20.26388 | 408 ft | 46 kts | 149° |
| 2026-05-06 10:26 | 32.09705 | 20.26762 | 415 ft | 134 kts | 150° |
| 2026-05-06 10:26 | 32.08824 | 20.27357 | 787 ft | 153 kts | 151° |
| 2026-05-06 10:27 | 32.07852 | 20.27996 | 1399 ft | 166 kts | 153° |
| 2026-05-06 10:27 | 32.06790 | 20.28642 | 2044 ft | 177 kts | 154° |
| 2026-05-06 10:27 | 32.05833 | 20.29662 | 2547 ft | 202 kts | 124° |
| 2026-05-06 10:27 | 32.05455 | 20.31391 | 2947 ft | 239 kts | 88° |
| 2026-05-06 10:28 | 32.06083 | 20.33280 | 3361 ft | 267 kts | 52° |
| 2026-05-06 10:28 | 32.07515 | 20.34655 | 4486 ft | 261 kts | 34° |
| 2026-05-06 10:28 | 32.09032 | 20.35810 | 5536 ft | 264 kts | 33° |
| 2026-05-06 10:28 | 32.10544 | 20.37075 | 6530 ft | 267 kts | 36° |
| 2026-05-06 10:29 | 32.12042 | 20.38413 | 7441 ft | 273 kts | 36° |
| 2026-05-06 10:29 | 32.13585 | 20.39757 | 8423 ft | 277 kts | 34° |
| 2026-05-06 10:29 | 32.15163 | 20.41103 | 9419 ft | 283 kts | 34° |
| 2026-05-06 10:29 | 32.16771 | 20.42485 | 10286 ft | 289 kts | 34° |
| 2026-05-06 10:30 | 32.18450 | 20.43938 | 10647 ft | 312 kts | 34° |
| 2026-05-06 10:30 | 32.20252 | 20.45507 | 10768 ft | 339 kts | 35° |
| 2026-05-06 10:30 | 32.21840 | 20.47698 | 10955 ft | 362 kts | 60° |
| 2026-05-06 10:30 | 32.22873 | 20.50385 | 11874 ft | 359 kts | 64° |
| 2026-05-06 10:31 | 32.23543 | 20.52195 | 12319 ft | 363 kts | 64° |
| 2026-05-06 10:31 | 32.24576 | 20.54937 | 13010 ft | 367 kts | 64° |
| 2026-05-06 10:31 | 32.25636 | 20.57712 | 13697 ft | 372 kts | 64° |
| 2026-05-06 10:31 | 32.27046 | 20.61443 | 14533 ft | 378 kts | 64° |
| 2026-05-06 10:32 | 32.28076 | 20.64191 | 15128 ft | 382 kts | 64° |
| 2026-05-06 10:32 | 32.28806 | 20.66133 | 15531 ft | 385 kts | 64° |
| 2026-05-06 10:32 | 32.29887 | 20.68995 | 16141 ft | 389 kts | 64° |
| 2026-05-06 10:33 | 32.30736 | 20.71251 | 16612 ft | 392 kts | 64° |
| 2026-05-06 10:33 | 32.31827 | 20.74225 | 17260 ft | 396 kts | 64° |
| 2026-05-06 10:33 | 32.32903 | 20.77206 | 17899 ft | 401 kts | 64° |
| 2026-05-06 10:33 | 32.34018 | 20.80255 | 18561 ft | 405 kts | 64° |
| 2026-05-06 10:34 | 32.35157 | 20.83342 | 19172 ft | 409 kts | 64° |
| 2026-05-06 10:34 | 32.36289 | 20.86432 | 19801 ft | 413 kts | 64° |
| 2026-05-06 10:34 | 32.37437 | 20.89586 | 20438 ft | 418 kts | 64° |
| 2026-05-06 10:34 | 32.38592 | 20.92758 | 21076 ft | 422 kts | 64° |
| 2026-05-06 10:35 | 32.39764 | 20.95964 | 21694 ft | 427 kts | 64° |
| 2026-05-06 10:35 | 32.40934 | 20.99171 | 22325 ft | 431 kts | 64° |
| 2026-05-06 10:35 | 32.42128 | 21.02456 | 22949 ft | 436 kts | 64° |
| 2026-05-06 10:35 | 32.43333 | 21.05773 | 23566 ft | 440 kts | 64° |
| 2026-05-06 10:36 | 32.44552 | 21.09127 | 24100 ft | 445 kts | 64° |
| 2026-05-06 10:36 | 32.45782 | 21.12518 | 24631 ft | 448 kts | 64° |
| 2026-05-06 10:36 | 32.47018 | 21.15926 | 25166 ft | 452 kts | 64° |
| 2026-05-06 10:36 | 32.48262 | 21.19362 | 25666 ft | 456 kts | 64° |
| 2026-05-06 10:37 | 32.49502 | 21.22787 | 26180 ft | 460 kts | 64° |
| 2026-05-06 10:37 | 32.50768 | 21.26292 | 26692 ft | 463 kts | 64° |
| 2026-05-06 10:37 | 32.52046 | 21.29831 | 27203 ft | 467 kts | 64° |
| 2026-05-06 10:37 | 32.53329 | 21.33391 | 27713 ft | 471 kts | 64° |
| 2026-05-06 10:38 | 32.54626 | 21.36990 | 28222 ft | 475 kts | 64° |
| 2026-05-06 10:38 | 32.55913 | 21.40567 | 28722 ft | 479 kts | 64° |
| 2026-05-06 10:38 | 32.57228 | 21.44225 | 29227 ft | 482 kts | 64° |
| 2026-05-06 10:38 | 32.58544 | 21.47890 | 29720 ft | 486 kts | 64° |
| 2026-05-06 10:39 | 32.59873 | 21.51595 | 30199 ft | 490 kts | 64° |
| 2026-05-06 10:39 | 32.61214 | 21.55338 | 30633 ft | 493 kts | 64° |
| 2026-05-06 10:39 | 32.62549 | 21.59070 | 31049 ft | 496 kts | 64° |
| 2026-05-06 10:39 | 32.63898 | 21.62847 | 31660 ft | 495 kts | 64° |
| 2026-05-06 10:40 | 32.65244 | 21.66618 | 32314 ft | 492 kts | 64° |
| 2026-05-06 10:40 | 32.66578 | 21.70356 | 32902 ft | 492 kts | 64° |
| 2026-05-06 10:40 | 32.67913 | 21.74102 | 33513 ft | 491 kts | 64° |
| 2026-05-06 10:40 | 32.69227 | 21.77796 | 34139 ft | 490 kts | 64° |
| 2026-05-06 10:41 | 32.70558 | 21.81544 | 34668 ft | 489 kts | 63° |
| 2026-05-06 10:41 | 32.71881 | 21.85268 | 35184 ft | 489 kts | 63° |
| 2026-05-06 10:41 | 32.73186 | 21.88947 | 35699 ft | 489 kts | 63° |
| 2026-05-06 10:41 | 32.74507 | 21.92677 | 36230 ft | 489 kts | 63° |
| 2026-05-06 10:42 | 32.75826 | 21.96405 | 36763 ft | 488 kts | 63° |
| 2026-05-06 10:42 | 32.76987 | 21.99924 | 37212 ft | 492 kts | 68° |
| 2026-05-06 10:42 | 32.77784 | 22.03772 | 37688 ft | 497 kts | 77° |
| 2026-05-06 10:42 | 32.78097 | 22.07879 | 38238 ft | 499 kts | 86° |
| 2026-05-06 10:43 | 32.78066 | 22.11682 | 38728 ft | 500 kts | 89° |
| 2026-05-06 10:43 | 32.77904 | 22.15760 | 39133 ft | 500 kts | 90° |
| 2026-05-06 10:43 | 32.77835 | 22.19837 | 39508 ft | 500 kts | 86° |
| 2026-05-06 10:44 | 32.78108 | 22.27907 | 40316 ft | 500 kts | 86° |
| 2026-05-06 10:44 | 32.78081 | 22.31857 | 40693 ft | 501 kts | 89° |
| 2026-05-06 10:44 | 32.78013 | 22.36018 | 41103 ft | 501 kts | 88° |
| 2026-05-06 10:45 | 32.78159 | 22.44118 | 41159 ft | 519 kts | 86° |
| 2026-05-06 10:45 | 32.78154 | 22.52741 | 41153 ft | 538 kts | 89° |
| 2026-05-06 10:46 | 32.78215 | 22.61405 | 41165 ft | 550 kts | 87° |
| 2026-05-06 10:46 | 32.78254 | 22.70492 | 41157 ft | 560 kts | 88° |
| 2026-05-06 10:47 | 32.78266 | 22.79425 | 41163 ft | 563 kts | 87° |
| 2026-05-06 10:47 | 32.78316 | 22.88474 | 41157 ft | 563 kts | 88° |
| 2026-05-06 10:48 | 32.78304 | 22.97625 | 41154 ft | 559 kts | 88° |
| 2026-05-06 10:48 | 32.78343 | 23.06646 | 41147 ft | 556 kts | 88° |
| 2026-05-06 10:49 | 32.78323 | 23.15474 | 41146 ft | 554 kts | 88° |
| 2026-05-06 10:49 | 32.78340 | 23.24451 | 41150 ft | 554 kts | 88° |
| 2026-05-06 10:50 | 32.78317 | 23.33424 | 41156 ft | 555 kts | 88° |
| 2026-05-06 10:50 | 32.78313 | 23.42366 | 41162 ft | 556 kts | 88° |
| 2026-05-06 10:51 | 32.78284 | 23.51319 | 41169 ft | 557 kts | 88° |
| 2026-05-06 10:51 | 32.78261 | 23.60352 | 41168 ft | 558 kts | 88° |
| 2026-05-06 10:52 | 32.78224 | 23.69386 | 41165 ft | 559 kts | 88° |
| 2026-05-06 10:52 | 32.78184 | 23.78394 | 41169 ft | 559 kts | 88° |
| 2026-05-06 10:53 | 32.78137 | 23.87370 | 41171 ft | 559 kts | 88° |
| 2026-05-06 10:53 | 32.78083 | 23.96436 | 41173 ft | 559 kts | 88° |
| 2026-05-06 10:54 | 32.78023 | 24.05417 | 41169 ft | 560 kts | 88° |
| 2026-05-06 10:54 | 32.77956 | 24.14484 | 41175 ft | 560 kts | 88° |
| 2026-05-06 10:55 | 32.77882 | 24.23542 | 41171 ft | 561 kts | 89° |
| 2026-05-06 10:55 | 32.77803 | 24.32562 | 41173 ft | 562 kts | 89° |
| 2026-05-06 10:56 | 32.77717 | 24.41595 | 41172 ft | 563 kts | 89° |
| 2026-05-06 10:56 | 32.77622 | 24.50803 | 41166 ft | 564 kts | 89° |
| 2026-05-06 10:57 | 32.77523 | 24.59813 | 41161 ft | 565 kts | 89° |
| 2026-05-06 10:57 | 32.77415 | 24.69032 | 41166 ft | 565 kts | 89° |
| 2026-05-06 10:58 | 32.77302 | 24.78116 | 41166 ft | 566 kts | 89° |
| 2026-05-06 10:58 | 32.77183 | 24.87171 | 41166 ft | 566 kts | 89° |
| 2026-05-06 10:59 | 32.77055 | 24.96359 | 41161 ft | 567 kts | 89° |
| 2026-05-06 10:59 | 32.76921 | 25.05525 | 41156 ft | 562 kts | 90° |
| 2026-05-06 11:00 | 32.76782 | 25.14557 | 41148 ft | 555 kts | 90° |
| 2026-05-06 11:00 | 32.76641 | 25.23347 | 41153 ft | 551 kts | 90° |
| 2026-05-06 11:01 | 32.76490 | 25.32346 | 41154 ft | 551 kts | 90° |
| 2026-05-06 11:01 | 32.76337 | 25.41136 | 41156 ft | 554 kts | 90° |
| 2026-05-06 11:02 | 32.76175 | 25.50049 | 41157 ft | 556 kts | 90° |
| 2026-05-06 11:02 | 32.76003 | 25.59142 | 41159 ft | 557 kts | 90° |
| 2026-05-06 11:03 | 32.75821 | 25.68440 | 41158 ft | 560 kts | 90° |
| 2026-05-06 11:03 | 32.75631 | 25.77785 | 41161 ft | 567 kts | 91° |
| 2026-05-06 11:04 | 32.75433 | 25.87140 | 41159 ft | 570 kts | 91° |
| 2026-05-06 11:04 | 32.75227 | 25.96585 | 41159 ft | 571 kts | 91° |
| 2026-05-06 11:05 | 32.75014 | 26.05988 | 41153 ft | 571 kts | 91° |
| 2026-05-06 11:05 | 32.74794 | 26.15433 | 41149 ft | 571 kts | 91° |
| 2026-05-06 11:06 | 32.74567 | 26.24837 | 41153 ft | 572 kts | 91° |
| 2026-05-06 11:06 | 32.74332 | 26.34312 | 41147 ft | 572 kts | 91° |
| 2026-05-06 11:07 | 32.74090 | 26.43759 | 41150 ft | 572 kts | 91° |
| 2026-05-06 11:07 | 32.73842 | 26.53160 | 41148 ft | 572 kts | 91° |
| 2026-05-06 11:08 | 32.73593 | 26.62340 | 41142 ft | 572 kts | 91° |
| 2026-05-06 11:08 | 32.73324 | 26.72028 | 41144 ft | 572 kts | 91° |
| 2026-05-06 11:09 | 32.73055 | 26.81434 | 41147 ft | 573 kts | 91° |
| 2026-05-06 11:09 | 32.72777 | 26.90890 | 41143 ft | 573 kts | 91° |
| 2026-05-06 11:10 | 32.72491 | 27.00381 | 41141 ft | 573 kts | 91° |
| 2026-05-06 11:10 | 32.72201 | 27.09788 | 41143 ft | 573 kts | 91° |
| 2026-05-06 11:11 | 32.71901 | 27.19263 | 41143 ft | 573 kts | 91° |
| 2026-05-06 11:11 | 32.71595 | 27.28736 | 41142 ft | 574 kts | 91° |
| 2026-05-06 11:12 | 32.71283 | 27.38152 | 41132 ft | 574 kts | 91° |
| 2026-05-06 11:12 | 32.71542 | 27.47626 | 41125 ft | 572 kts | 81° |
| 2026-05-06 11:13 | 32.72896 | 27.56936 | 41138 ft | 572 kts | 79° |
| 2026-05-06 11:13 | 32.73869 | 27.65785 | 41136 ft | 572 kts | 81° |
| 2026-05-06 11:14 | 32.75059 | 27.74947 | 41131 ft | 572 kts | 78° |
| 2026-05-06 11:14 | 32.76145 | 27.84024 | 41133 ft | 572 kts | 81° |
| 2026-05-06 11:15 | 32.77247 | 27.93197 | 41136 ft | 572 kts | 79° |
| 2026-05-06 11:15 | 32.78376 | 28.02298 | 41132 ft | 573 kts | 81° |
| 2026-05-06 11:16 | 32.79448 | 28.11599 | 41129 ft | 573 kts | 79° |
| 2026-05-06 11:16 | 32.80608 | 28.20990 | 41130 ft | 573 kts | 81° |
| 2026-05-06 11:17 | 32.81680 | 28.30351 | 41128 ft | 573 kts | 80° |
| 2026-05-06 11:17 | 32.82627 | 28.38181 | 41128 ft | 573 kts | 80° |
| 2026-05-06 11:18 | 32.83883 | 28.49109 | 41126 ft | 574 kts | 80° |
| 2026-05-06 11:18 | 32.84805 | 28.56949 | 41127 ft | 574 kts | 80° |
| 2026-05-06 11:19 | 32.85884 | 28.66368 | 41126 ft | 574 kts | 81° |
| 2026-05-06 11:19 | 32.86967 | 28.75787 | 41124 ft | 574 kts | 81° |
| 2026-05-06 11:20 | 32.88208 | 28.86736 | 41122 ft | 574 kts | 81° |
| 2026-05-06 11:20 | 32.89096 | 28.94588 | 41123 ft | 574 kts | 81° |
| 2026-05-06 11:21 | 32.90154 | 29.04025 | 41124 ft | 575 kts | 81° |
| 2026-05-06 11:21 | 32.91204 | 29.13445 | 41114 ft | 575 kts | 81° |
| 2026-05-06 11:22 | 32.92196 | 29.22413 | 41108 ft | 575 kts | 81° |
| 2026-05-06 11:22 | 32.93212 | 29.31654 | 41112 ft | 575 kts | 81° |
| 2026-05-06 11:23 | 32.94223 | 29.40925 | 41117 ft | 575 kts | 81° |
| 2026-05-06 11:23 | 32.95199 | 29.49931 | 41121 ft | 575 kts | 81° |
| 2026-05-06 11:24 | 32.96210 | 29.59325 | 41102 ft | 575 kts | 81° |
| 2026-05-06 11:24 | 32.97183 | 29.68427 | 41105 ft | 576 kts | 81° |
| 2026-05-06 11:25 | 32.98174 | 29.77777 | 41116 ft | 576 kts | 81° |
| 2026-05-06 11:25 | 32.99135 | 29.86894 | 41107 ft | 577 kts | 81° |
| 2026-05-06 11:26 | 33.00115 | 29.96264 | 41117 ft | 577 kts | 81° |
| 2026-05-06 11:26 | 33.01071 | 30.05482 | 41106 ft | 577 kts | 81° |
| 2026-05-06 11:27 | 33.02030 | 30.14785 | 41107 ft | 578 kts | 81° |
| 2026-05-06 11:27 | 33.02967 | 30.23943 | 41109 ft | 578 kts | 81° |
| 2026-05-06 11:28 | 33.03923 | 30.33354 | 41108 ft | 579 kts | 82° |
| 2026-05-06 11:28 | 33.04854 | 30.42603 | 41107 ft | 579 kts | 82° |
| 2026-05-06 11:29 | 33.05788 | 30.51939 | 41103 ft | 579 kts | 82° |
| 2026-05-06 11:29 | 33.06706 | 30.61195 | 41109 ft | 580 kts | 82° |
| 2026-05-06 11:30 | 33.07629 | 30.70561 | 41105 ft | 580 kts | 82° |
| 2026-05-06 11:30 | 33.08544 | 30.79926 | 41104 ft | 581 kts | 82° |
| 2026-05-06 11:31 | 33.09438 | 30.89153 | 41106 ft | 581 kts | 82° |
| 2026-05-06 11:31 | 33.10842 | 30.98474 | 41082 ft | 578 kts | 71° |
| 2026-05-06 11:32 | 33.13559 | 31.07249 | 41110 ft | 576 kts | 65° |
| 2026-05-06 11:32 | 33.16126 | 31.15939 | 41094 ft | 579 kts | 71° |
| 2026-05-06 11:33 | 33.18603 | 31.24950 | 41096 ft | 577 kts | 66° |
| 2026-05-06 11:33 | 33.21324 | 31.33933 | 41097 ft | 579 kts | 69° |
| 2026-05-06 11:34 | 33.23816 | 31.43081 | 41095 ft | 578 kts | 68° |
| 2026-05-06 11:34 | 33.26514 | 31.52148 | 41097 ft | 579 kts | 69° |
| 2026-05-06 11:35 | 33.29044 | 31.61321 | 41095 ft | 579 kts | 69° |
| 2026-05-06 11:35 | 33.31678 | 31.70387 | 41094 ft | 579 kts | 69° |
| 2026-05-06 11:36 | 33.34232 | 31.79552 | 41093 ft | 580 kts | 69° |
| 2026-05-06 11:36 | 33.36823 | 31.88646 | 41091 ft | 580 kts | 69° |
| 2026-05-06 11:37 | 33.39382 | 31.97797 | 41095 ft | 580 kts | 69° |
| 2026-05-06 11:37 | 33.41957 | 32.06956 | 41099 ft | 580 kts | 69° |
| 2026-05-06 11:38 | 33.44507 | 32.16090 | 41092 ft | 581 kts | 69° |
| 2026-05-06 11:38 | 33.47067 | 32.25281 | 41087 ft | 581 kts | 69° |
| 2026-05-06 11:39 | 33.49613 | 32.34447 | 41093 ft | 581 kts | 69° |
| 2026-05-06 11:39 | 33.52163 | 32.43666 | 41090 ft | 581 kts | 69° |
| 2026-05-06 11:40 | 33.54706 | 32.52882 | 41094 ft | 581 kts | 69° |
| 2026-05-06 11:40 | 33.57230 | 32.62064 | 41092 ft | 581 kts | 69° |
| 2026-05-06 11:41 | 33.59760 | 32.71295 | 41095 ft | 582 kts | 69° |
| 2026-05-06 11:41 | 33.62282 | 32.80531 | 41092 ft | 582 kts | 69° |
| 2026-05-06 11:42 | 33.64782 | 32.89713 | 41097 ft | 582 kts | 69° |
| 2026-05-06 11:42 | 33.67297 | 32.98983 | 41096 ft | 582 kts | 70° |
| 2026-05-06 11:43 | 33.69802 | 33.08243 | 41093 ft | 583 kts | 70° |
| 2026-05-06 11:43 | 33.72285 | 33.17458 | 41093 ft | 583 kts | 70° |
| 2026-05-06 11:44 | 33.76023 | 33.31385 | 41097 ft | 583 kts | 70° |
| 2026-05-06 11:44 | 33.78511 | 33.40693 | 41097 ft | 583 kts | 70° |
| 2026-05-06 11:45 | 33.80971 | 33.49930 | 41093 ft | 583 kts | 70° |
| 2026-05-06 11:45 | 33.84105 | 33.58868 | 41073 ft | 577 kts | 56° |
| 2026-05-06 11:46 | 33.88951 | 33.66454 | 41084 ft | 568 kts | 42° |
| 2026-05-06 11:46 | 33.94592 | 33.72987 | 41097 ft | 565 kts | 38° |
| 2026-05-06 11:47 | 34.00042 | 33.79884 | 41093 ft | 570 kts | 45° |
| 2026-05-06 11:47 | 34.05348 | 33.86987 | 41087 ft | 567 kts | 41° |
| 2026-05-06 11:48 | 34.10805 | 33.93789 | 41089 ft | 568 kts | 43° |
| 2026-05-06 11:48 | 34.16123 | 34.00873 | 41093 ft | 567 kts | 42° |
| 2026-05-06 11:49 | 34.21539 | 34.07735 | 41091 ft | 567 kts | 43° |
| 2026-05-06 11:49 | 34.26881 | 34.14790 | 41088 ft | 567 kts | 43° |
| 2026-05-06 11:50 | 34.32293 | 34.21755 | 41090 ft | 567 kts | 43° |
| 2026-05-06 11:50 | 34.37622 | 34.28755 | 41095 ft | 567 kts | 43° |
| 2026-05-06 11:51 | 34.43005 | 34.35760 | 41088 ft | 567 kts | 43° |
| 2026-05-06 11:51 | 34.47872 | 34.43358 | 41089 ft | 573 kts | 53° |
| 2026-05-06 11:52 | 34.52261 | 34.51370 | 41087 ft | 572 kts | 52° |
| 2026-05-06 11:52 | 34.56855 | 34.59278 | 41090 ft | 572 kts | 52° |
| 2026-05-06 11:53 | 34.61278 | 34.67265 | 41091 ft | 572 kts | 52° |
| 2026-05-06 11:53 | 34.65822 | 34.75225 | 41098 ft | 572 kts | 52° |
| 2026-05-06 11:54 | 34.70267 | 34.83201 | 41092 ft | 572 kts | 53° |
| 2026-05-06 11:54 | 34.74773 | 34.91197 | 41092 ft | 572 kts | 52° |
| 2026-05-06 11:55 | 34.79255 | 34.99226 | 41089 ft | 572 kts | 53° |
| 2026-05-06 11:55 | 34.83708 | 35.07193 | 41091 ft | 572 kts | 53° |
| 2026-05-06 11:56 | 34.88193 | 35.15246 | 41089 ft | 573 kts | 53° |
| 2026-05-06 11:56 | 34.92625 | 35.23223 | 41087 ft | 572 kts | 53° |
| 2026-05-06 11:57 | 34.97107 | 35.31301 | 41086 ft | 572 kts | 53° |
| 2026-05-06 11:57 | 35.01535 | 35.39309 | 41086 ft | 573 kts | 53° |
| 2026-05-06 11:58 | 35.05992 | 35.47379 | 41084 ft | 572 kts | 53° |
| 2026-05-06 11:58 | 35.10447 | 35.55472 | 41085 ft | 573 kts | 53° |
| 2026-05-06 11:59 | 35.14860 | 35.63500 | 41083 ft | 573 kts | 53° |
| 2026-05-06 11:59 | 35.18888 | 35.71928 | 41060 ft | 577 kts | 65° |
| 2026-05-06 12:00 | 35.21115 | 35.81365 | 41068 ft | 579 kts | 79° |
| 2026-05-06 12:00 | 35.21458 | 35.91204 | 41065 ft | 579 kts | 96° |
| 2026-05-06 12:01 | 35.19717 | 36.00704 | 41071 ft | 575 kts | 112° |
| 2026-05-06 12:01 | 35.16031 | 36.09269 | 41065 ft | 566 kts | 129° |
| 2026-05-06 12:02 | 35.10725 | 36.16195 | 41064 ft | 555 kts | 144° |
| 2026-05-06 12:02 | 35.04484 | 36.21709 | 41077 ft | 553 kts | 150° |
| 2026-05-06 12:03 | 34.99308 | 36.26352 | 41068 ft | 556 kts | 146° |
| 2026-05-06 12:03 | 34.93789 | 36.33072 | 41073 ft | 563 kts | 135° |
| 2026-05-06 12:04 | 34.88802 | 36.40374 | 41063 ft | 562 kts | 135° |
| 2026-05-06 12:04 | 34.83369 | 36.47132 | 41055 ft | 558 kts | 140° |
| 2026-05-06 12:05 | 34.78027 | 36.54062 | 41054 ft | 561 kts | 136° |
| 2026-05-06 12:05 | 34.72980 | 36.60621 | 41047 ft | 559 kts | 139° |
| 2026-05-06 12:06 | 34.67802 | 36.67164 | 41042 ft | 560 kts | 137° |
| 2026-05-06 12:06 | 34.62472 | 36.74139 | 41031 ft | 544 kts | 139° |
| 2026-05-06 12:07 | 34.57252 | 36.80705 | 41034 ft | 546 kts | 138° |
| 2026-05-06 12:07 | 34.52061 | 36.87433 | 41037 ft | 547 kts | 139° |
| 2026-05-06 12:08 | 34.46753 | 36.94141 | 41032 ft | 547 kts | 139° |
| 2026-05-06 12:08 | 34.41547 | 37.00812 | 41030 ft | 547 kts | 139° |
| 2026-05-06 12:09 | 34.36279 | 37.07482 | 41034 ft | 547 kts | 139° |
| 2026-05-06 12:09 | 34.30808 | 37.13824 | 41023 ft | 538 kts | 148° |
| 2026-05-06 12:10 | 34.24423 | 37.18135 | 41028 ft | 521 kts | 165° |
| 2026-05-06 12:10 | 34.17518 | 37.20064 | 40354 ft | 500 kts | 180° |
| 2026-05-06 12:11 | 34.14025 | 37.20223 | 38487 ft | 503 kts | 188° |
| 2026-05-06 12:11 | 34.10627 | 37.19744 | 37191 ft | 487 kts | 196° |
| 2026-05-06 12:11 | 34.07432 | 37.18864 | 36256 ft | 460 kts | 201° |
| 2026-05-06 12:11 | 34.04444 | 37.17524 | 34771 ft | 452 kts | 210° |
| 2026-05-06 12:12 | 34.01656 | 37.15971 | 33898 ft | 432 kts | 211° |
| 2026-05-06 12:12 | 33.98885 | 37.14464 | 32165 ft | 437 kts | 210° |
| 2026-05-06 12:12 | 33.96169 | 37.13073 | 31324 ft | 421 kts | 209° |
| 2026-05-06 12:12 | 33.93451 | 37.11654 | 30036 ft | 426 kts | 211° |
| 2026-05-06 12:13 | 33.90763 | 37.10205 | 28962 ft | 423 kts | 211° |
| 2026-05-06 12:13 | 33.88085 | 37.08779 | 27950 ft | 419 kts | 210° |
| 2026-05-06 12:13 | 33.85427 | 37.07391 | 26925 ft | 414 kts | 210° |
| 2026-05-06 12:13 | 33.82803 | 37.06018 | 25896 ft | 408 kts | 210° |
| 2026-05-06 12:14 | 33.80226 | 37.04655 | 24908 ft | 398 kts | 211° |
| 2026-05-06 12:14 | 33.77743 | 37.03339 | 23937 ft | 393 kts | 211° |
| 2026-05-06 12:14 | 33.75248 | 37.02026 | 22923 ft | 386 kts | 211° |
| 2026-05-06 12:14 | 33.72794 | 37.00739 | 21978 ft | 380 kts | 210° |
| 2026-05-06 12:15 | 33.70376 | 36.99465 | 21060 ft | 376 kts | 210° |
| 2026-05-06 12:15 | 33.67983 | 36.98204 | 20163 ft | 374 kts | 209° |
| 2026-05-06 12:15 | 33.65640 | 36.96974 | 19291 ft | 370 kts | 209° |
| 2026-05-06 12:15 | 33.63286 | 36.95740 | 18421 ft | 366 kts | 208° |
| 2026-05-06 12:16 | 33.60965 | 36.94524 | 17538 ft | 361 kts | 208° |
| 2026-05-06 12:16 | 33.58673 | 36.93322 | 16697 ft | 358 kts | 208° |
| 2026-05-06 12:16 | 33.56399 | 36.92128 | 15877 ft | 355 kts | 208° |
| 2026-05-06 12:16 | 33.54166 | 36.90958 | 15071 ft | 353 kts | 207° |
| 2026-05-06 12:17 | 33.51916 | 36.89781 | 14264 ft | 351 kts | 207° |
| 2026-05-06 12:17 | 33.49752 | 36.88650 | 13457 ft | 349 kts | 207° |
| 2026-05-06 12:17 | 33.47539 | 36.87493 | 12684 ft | 345 kts | 207° |
| 2026-05-06 12:17 | 33.45567 | 36.86461 | 11985 ft | 340 kts | 206° |
| 2026-05-06 12:18 | 33.43567 | 36.85085 | 11149 ft | 324 kts | 220° |
| 2026-05-06 12:18 | 33.42090 | 36.83137 | 10443 ft | 310 kts | 236° |
| 2026-05-06 12:18 | 33.41168 | 36.80855 | 9739 ft | 301 kts | 251° |
| 2026-05-06 12:18 | 33.40818 | 36.78455 | 9060 ft | 293 kts | 266° |
| 2026-05-06 12:19 | 33.41016 | 36.76063 | 8408 ft | 287 kts | 281° |
| 2026-05-06 12:19 | 33.41691 | 36.73843 | 7777 ft | 280 kts | 292° |
| 2026-05-06 12:19 | 33.42454 | 36.71735 | 7170 ft | 275 kts | 291° |
| 2026-05-06 12:19 | 33.43193 | 36.69631 | 6548 ft | 272 kts | 291° |
| 2026-05-06 12:20 | 33.43924 | 36.67549 | 5908 ft | 269 kts | 291° |
| 2026-05-06 12:20 | 33.44638 | 36.65547 | 5316 ft | 249 kts | 291° |
| 2026-05-06 12:20 | 33.45281 | 36.63745 | 4808 ft | 224 kts | 291° |
| 2026-05-06 12:20 | 33.45865 | 36.62076 | 4335 ft | 219 kts | 290° |
| 2026-05-06 12:21 | 33.46052 | 36.60298 | 3759 ft | 217 kts | 259° |
| 2026-05-06 12:21 | 33.45453 | 36.58729 | 3359 ft | 194 kts | 232° |
| 2026-05-06 12:21 | 33.44619 | 36.57636 | 2970 ft | 163 kts | 225° |
| 2026-05-06 12:21 | 33.43905 | 36.56699 | 2539 ft | 141 kts | 227° |
| 2026-05-06 12:22 | 33.43314 | 36.55912 | 2445 ft | 116 kts | 228° |
| 2026-05-06 12:22 | 33.42768 | 36.55203 | 2340 ft | 119 kts | 226° |
| 2026-05-06 12:22 | 33.42172 | 36.54516 | 2227 ft | 122 kts | 225° |
| 2026-05-06 12:22 | 33.41581 | 36.53771 | 2152 ft | 124 kts | 229° |
| 2026-05-06 12:23 | 33.41011 | 36.53005 | 2089 ft | 121 kts | 230° |
| 2026-05-06 12:23 | 33.40456 | 36.52253 | 2031 ft | 118 kts | 230° |
| 2026-05-06 12:23 | 33.39968 | 36.51590 | 2014 ft | 86 kts | 228° |
| 2026-05-06 12:23 | 33.39657 | 36.51166 | 2009 ft | 60 kts | 229° |
| 2026-05-06 12:24 | 33.39404 | 36.50829 | 2012 ft | 43 kts | 228° |
| 2026-05-06 12:24 | 33.39273 | 36.50654 | 2014 ft | 19 kts | 230° |
| 2026-05-06 12:24 | 33.39290 | 36.50578 | 2014 ft | 6 kts | 325° |
| 2026-05-06 12:24 | 33.39321 | 36.50553 | 2014 ft | 5 kts | 325° |
| 2026-05-06 12:25 | 33.39347 | 36.50531 | 2014 ft | 5 kts | 325° |
| 2026-05-06 12:25 | 33.39406 | 36.50542 | 2014 ft | 14 kts | 46° |
| 2026-05-06 12:25 | 33.39498 | 36.50662 | 2015 ft | 25 kts | 47° |
| 2026-05-06 12:25 | 33.39642 | 36.50853 | 2014 ft | 37 kts | 48° |
| 2026-05-06 12:26 | 33.39837 | 36.51112 | 2014 ft | 43 kts | 48° |
| 2026-05-06 12:26 | 33.40013 | 36.51350 | 2014 ft | 34 kts | 48° |
| 2026-05-06 12:26 | 33.40165 | 36.51519 | 2013 ft | 26 kts | 22° |
| 2026-05-06 12:26 | 33.40327 | 36.51607 | 2014 ft | 25 kts | 30° |
| 2026-05-06 12:27 | 33.40437 | 36.51730 | 2014 ft | 21 kts | 46° |
| 2026-05-06 12:27 | 33.40536 | 36.51856 | 2014 ft | 20 kts | 47° |
| 2026-05-06 12:27 | 33.40624 | 36.51976 | 2013 ft | 17 kts | 38° |
| 2026-05-06 12:27 | 33.40722 | 36.51941 | 2013 ft | 15 kts | 326° |
| 2026-05-06 12:28 | 33.40803 | 36.51866 | 2013 ft | 15 kts | 318° |
| 2026-05-06 12:28 | 33.40879 | 36.51795 | 2012 ft | 12 kts | 301° |
| 2026-05-06 12:28 | 33.40907 | 36.51709 | 2013 ft | 11 kts | 319° |
| 2026-05-06 12:28 | 33.40970 | 36.51716 | 2010 ft | 10 kts | 39° |
| 2026-05-06 12:29 | 33.41019 | 36.51760 | 2012 ft | 8 kts | 354° |
| 2026-05-06 12:29 | 33.41079 | 36.51706 | 2013 ft | 12 kts | 317° |
| 2026-05-06 12:29 | 33.41141 | 36.51641 | 2013 ft | 11 kts | 322° |
| 2026-05-06 12:29 | 33.41204 | 36.51589 | 2013 ft | 11 kts | 329° |
| 2026-05-06 12:30 | 33.41261 | 36.51540 | 2013 ft | 10 kts | 322° |
| 2026-05-06 12:30 | 33.41313 | 36.51535 | 2013 ft | 8 kts | 46° |
| 2026-05-06 12:30 | 33.41338 | 36.51570 | 2013 ft | 0 kts | 51° |